createdAt,value
2019-01-05T00:01:35.869Z,24.87
2019-01-05T00:04:30.182Z,17.83
2019-01-05T00:07:08.815Z,15.33
2019-01-05T00:09:57.838Z,10.53
2019-01-05T00:12:55.202Z,15.37
2019-01-05T00:15:42.459Z,2.47
2019-01-05T00:18:31.140Z,9.30
2019-01-05T00:21:19.614Z,9.97
2019-01-05T00:24:04.598Z,9.83
2019-01-05T00:26:55.310Z,10.23
2019-01-05T00:30:00.973Z,3.07
2019-01-05T00:32:48.927Z,3.07
2019-01-05T00:35:38.494Z,8.20
2019-01-05T00:38:24.067Z,3.57
2019-01-05T00:41:15.843Z,6.20
2019-01-05T00:44:02.574Z,12.23
2019-01-05T00:46:58.828Z,6.20
2019-01-05T00:49:47.297Z,6.50
2019-01-05T00:52:45.495Z,7.77
2019-01-05T00:55:30.702Z,14.40
2019-01-05T00:58:36.129Z,12.53
2019-01-05T01:01:41.180Z,11.60
2019-01-05T01:04:26.189Z,7.50
2019-01-05T01:07:12.620Z,16.43
2019-01-05T01:09:57.773Z,16.33
2019-01-05T01:12:46.405Z,26.43
2019-01-05T01:15:36.041Z,14.40
2019-01-05T01:18:22.192Z,17.23
2019-01-05T01:21:08.363Z,23.40
2019-01-05T01:23:46.108Z,14.40
2019-01-05T01:26:32.892Z,13.87
2019-01-05T01:29:21.581Z,13.33
2019-01-05T01:32:17.013Z,17.90
2019-01-05T01:35:03.285Z,13.00
2019-01-05T01:38:23.492Z,11.67
2019-01-05T01:41:18.871Z,10.87
2019-01-05T01:44:03.860Z,16.53
2019-01-05T01:46:49.202Z,15.83
2019-01-05T01:49:36.043Z,11.57
2019-01-05T01:52:31.309Z,9.90
2019-01-05T01:55:13.196Z,13.33
2019-01-05T01:57:58.954Z,13.43
2019-01-05T02:00:43.905Z,14.33
2019-01-05T02:03:29.931Z,25.33
2019-01-05T02:06:23.337Z,128.67
2019-01-05T02:09:12.517Z,251.50
2019-01-05T02:11:58.719Z,120.80
2019-01-05T02:14:56.123Z,16.07
2019-01-05T02:17:50.381Z,14.87
2019-01-05T02:21:07.279Z,10.07
2019-01-05T02:24:21.154Z,10.20
2019-01-05T02:27:42.354Z,3.80
2019-01-05T02:31:25.712Z,12.70
2019-01-05T02:34:50.302Z,9.00
2019-01-05T02:38:08.917Z,15.93
2019-01-05T02:41:23.954Z,8.50
2019-01-05T02:45:16.611Z,12.13
2019-01-05T02:48:33.100Z,5.73
2019-01-05T02:51:40.689Z,10.03
2019-01-05T02:54:58.380Z,4.37
2019-01-05T02:58:16.384Z,8.10
2019-01-05T03:01:54.935Z,2.43
2019-01-05T03:04:55.482Z,17.10
2019-01-05T03:08:19.157Z,11.50
2019-01-05T03:11:33.887Z,8.33
2019-01-05T03:14:43.679Z,4.47
2019-01-05T03:18:07.345Z,5.23
2019-01-05T03:21:46.746Z,9.30
2019-01-05T03:24:59.261Z,9.90
2019-01-05T03:28:43.600Z,11.57
2019-01-05T03:31:58.469Z,10.00
2019-01-05T03:35:17.349Z,5.30
2019-01-05T03:38:57.962Z,9.70
2019-01-05T03:42:41.908Z,10.60
2019-01-05T03:46:31.622Z,12.37
2019-01-05T03:50:04.178Z,12.20
2019-01-05T03:53:04.667Z,3.00
2019-01-05T03:56:38.937Z,6.90
2019-01-05T04:00:02.551Z,3.83
2019-01-05T04:03:28.627Z,5.73
2019-01-05T04:06:57.490Z,11.53
2019-01-05T04:10:38.099Z,5.80
2019-01-05T04:14:14.288Z,3.77
2019-01-05T04:17:40.809Z,5.67
2019-01-05T04:21:32.542Z,9.20
2019-01-05T04:25:01.004Z,7.50
2019-01-05T04:28:29.814Z,7.13
2019-01-05T04:32:19.389Z,8.83
2019-01-05T04:35:48.175Z,10.53
2019-01-05T04:39:22.279Z,4.83
2019-01-05T04:42:59.397Z,2.67
2019-01-05T04:46:12.653Z,6.33
2019-01-05T04:49:35.602Z,4.17
2019-01-05T04:52:55.235Z,7.20
2019-01-05T04:56:30.770Z,14.53
2019-01-05T05:00:04.517Z,10.37
2019-01-05T05:03:13.385Z,9.07
2019-01-05T05:06:46.489Z,10.70
2019-01-05T05:10:11.761Z,2.57
2019-01-05T05:13:25.350Z,7.80
2019-01-05T05:17:07.539Z,9.83
2019-01-05T05:20:43.801Z,4.60
2019-01-05T05:24:32.442Z,8.23
2019-01-05T05:27:54.258Z,4.03
2019-01-05T05:31:27.709Z,5.47
2019-01-05T05:35:13.111Z,4.50
2019-01-05T05:38:50.262Z,8.17
2019-01-05T05:42:30.316Z,8.73
2019-01-05T05:45:53.250Z,7.33
2019-01-05T05:49:22.233Z,11.90
2019-01-05T05:53:15.263Z,6.70
2019-01-05T05:56:30.785Z,12.43
2019-01-05T06:00:27.047Z,5.37
2019-01-05T06:03:56.563Z,4.23
2019-01-05T06:07:33.565Z,6.80
2019-01-05T06:10:59.370Z,18.03
2019-01-05T06:14:44.993Z,8.93
2019-01-05T06:17:52.235Z,8.30
2019-01-05T06:21:45.118Z,8.87
2019-01-05T06:25:09.391Z,7.23
2019-01-05T06:28:31.333Z,7.13
2019-01-05T06:31:56.534Z,10.53
2019-01-05T06:35:37.722Z,4.67
2019-01-05T06:39:05.214Z,6.43
2019-01-05T06:42:35.616Z,12.47
2019-01-05T06:46:14.476Z,8.47
2019-01-05T06:49:47.635Z,7.27
2019-01-05T06:53:33.277Z,8.40
2019-01-05T06:57:10.088Z,9.73
2019-01-05T07:00:42.861Z,7.43
2019-01-05T07:04:08.653Z,7.43
2019-01-05T07:07:36.379Z,11.03
2019-01-05T07:11:22.376Z,9.60
2019-01-05T07:14:51.167Z,6.47
2019-01-05T07:18:21.685Z,14.87
2019-01-05T07:21:41.267Z,11.67
2019-01-05T07:25:12.713Z,14.03
2019-01-05T07:28:38.543Z,13.30
2019-01-05T07:32:22.449Z,14.27
2019-01-05T07:36:06.155Z,18.07
2019-01-05T07:39:28.212Z,24.17
2019-01-05T07:43:11.633Z,21.57
2019-01-05T07:46:27.059Z,26.33
2019-01-05T07:49:59.198Z,19.60
2019-01-05T07:53:33.869Z,17.20
2019-01-05T07:56:52.689Z,25.37
2019-01-05T08:00:30.661Z,14.77
2019-01-05T08:04:03.897Z,25.37
2019-01-05T08:07:30.950Z,21.30
2019-01-05T08:10:58.755Z,19.97
2019-01-05T08:14:29.083Z,15.73
2019-01-05T08:18:01.952Z,27.17
2019-01-05T08:21:42.538Z,13.40
2019-01-05T08:29:06.097Z,13.77
2019-01-05T08:32:35.383Z,11.60
2019-01-05T08:36:14.565Z,27.07
2019-01-05T08:39:40.286Z,21.23
2019-01-05T08:43:19.724Z,16.97
2019-01-05T08:46:48.894Z,18.50
2019-01-05T08:50:24.418Z,16.87
2019-01-05T08:53:49.359Z,15.67
2019-01-05T08:57:19.864Z,26.07
2019-01-05T09:00:44.123Z,20.80
2019-01-05T09:04:22.969Z,17.80
2019-01-05T09:07:47.179Z,21.70
2019-01-05T09:10:54.383Z,18.07
2019-01-05T09:14:24.618Z,19.03
2019-01-05T09:17:32.851Z,17.90
2019-01-05T09:21:05.291Z,18.63
2019-01-05T09:24:33.935Z,12.00
2019-01-05T09:28:14.998Z,17.60
2019-01-05T09:32:10.963Z,16.70
2019-01-05T09:35:47.622Z,13.97
2019-01-05T09:39:03.955Z,19.03
2019-01-05T09:42:48.586Z,13.80
2019-01-05T09:46:04.748Z,16.10
2019-01-05T09:49:41.733Z,21.40
2019-01-05T09:53:28.210Z,24.87
2019-01-05T09:56:47.073Z,39.00
2019-01-05T10:00:33.958Z,36.67
2019-01-05T10:03:44.043Z,14.17
2019-01-05T10:07:10.860Z,18.87
2019-01-05T10:10:30.074Z,34.27
2019-01-05T10:13:55.754Z,21.73
2019-01-05T10:17:13.906Z,22.47
2019-01-05T10:20:44.636Z,18.43
2019-01-05T10:24:48.154Z,30.13
2019-01-05T10:28:06.035Z,19.00
2019-01-05T10:31:30.189Z,25.80
2019-01-05T10:34:48.693Z,17.37
2019-01-05T10:37:47.738Z,16.33
2019-01-05T10:41:14.482Z,17.80
2019-01-05T10:44:42.553Z,18.53
2019-01-05T10:47:54.944Z,29.33
2019-01-05T10:51:18.977Z,41.30
2019-01-05T10:54:48.588Z,34.63
2019-01-05T10:58:25.366Z,15.20
2019-01-05T11:02:10.832Z,19.97
2019-01-05T11:05:30.722Z,13.30
2019-01-05T11:08:56.974Z,20.60
2019-01-05T11:12:29.658Z,28.17
2019-01-05T11:15:44.084Z,34.57
2019-01-05T11:19:09.951Z,20.07
2019-01-05T11:22:30.430Z,24.90
2019-01-05T11:25:56.165Z,21.93
2019-01-05T11:29:20.148Z,23.00
2019-01-05T11:32:47.395Z,15.20
2019-01-05T11:36:09.451Z,27.50
2019-01-05T11:39:34.999Z,22.80
2019-01-05T11:42:50.497Z,16.70
2019-01-05T11:46:10.397Z,15.00
2019-01-05T11:50:02.177Z,27.77
2019-01-05T11:53:46.193Z,27.87
2019-01-05T11:56:58.706Z,15.33
2019-01-05T12:00:01.535Z,23.80
2019-01-05T12:03:41.337Z,18.67
2019-01-05T12:07:19.406Z,21.53
2019-01-05T12:10:26.181Z,17.60
2019-01-05T12:13:45.713Z,26.17
2019-01-05T12:17:16.186Z,19.20
2019-01-05T12:20:49.740Z,28.83
2019-01-05T12:24:03.110Z,20.60
2019-01-05T12:27:29.118Z,25.43
2019-01-05T12:31:01.553Z,24.77
2019-01-05T12:34:07.555Z,27.00
2019-01-05T12:37:42.719Z,29.03
2019-01-05T12:41:00.035Z,18.23
2019-01-05T12:44:29.581Z,29.67
2019-01-05T12:47:53.440Z,34.57
2019-01-05T12:51:26.923Z,25.53
2019-01-05T12:55:10.685Z,22.50
2019-01-05T12:58:34.253Z,27.27
2019-01-05T13:02:15.538Z,43.43
2019-01-05T13:05:41.529Z,20.60
2019-01-05T13:09:24.081Z,29.53
2019-01-05T13:12:49.212Z,19.03
2019-01-05T13:16:12.574Z,22.63
2019-01-05T13:19:37.205Z,18.67
2019-01-05T13:23:01.630Z,23.07
2019-01-05T13:26:29.990Z,35.23
2019-01-05T13:30:11.248Z,23.00
2019-01-05T13:33:46.404Z,31.07
2019-01-05T13:37:08.365Z,29.80
2019-01-05T13:40:28.474Z,17.63
2019-01-05T13:44:06.088Z,19.33
2019-01-05T13:47:21.518Z,40.60
2019-01-05T13:50:48.240Z,16.93
2019-01-05T13:54:02.275Z,26.60
2019-01-05T13:57:06.037Z,25.83
2019-01-05T13:59:50.985Z,29.57
2019-01-05T14:02:43.384Z,45.47
2019-01-05T14:05:42.010Z,15.23
2019-01-05T14:08:27.340Z,31.63
2019-01-05T14:11:23.184Z,32.00
2019-01-05T14:14:16.013Z,29.93
2019-01-05T14:17:08.218Z,20.07
2019-01-05T14:19:52.197Z,48.30
2019-01-05T14:22:41.457Z,32.73
2019-01-05T14:25:28.982Z,36.90
2019-01-05T14:28:31.149Z,19.07
2019-01-05T14:31:19.405Z,38.93
2019-01-05T14:34:15.045Z,21.10
2019-01-05T14:37:03.543Z,32.63
2019-01-05T14:39:40.949Z,30.97
2019-01-05T14:42:36.430Z,35.30
2019-01-05T14:45:22.222Z,27.27
2019-01-05T14:48:11.312Z,49.87
2019-01-05T14:51:15.354Z,25.90
2019-01-05T14:54:00.397Z,64.63
2019-01-05T14:56:46.190Z,31.57
2019-01-05T14:59:28.589Z,96.97
2019-01-05T15:02:13.802Z,46.70
2019-01-05T15:04:59.800Z,49.03
2019-01-05T15:07:44.022Z,40.00
2019-01-05T15:10:26.607Z,39.00
2019-01-05T15:13:15.174Z,30.93
2019-01-05T15:16:07.325Z,24.57
2019-01-05T15:18:53.661Z,31.67
2019-01-05T15:21:48.820Z,25.80
2019-01-05T15:24:40.754Z,15.30
2019-01-05T15:27:33.987Z,30.17
2019-01-05T15:30:18.635Z,27.50
2019-01-05T15:33:20.650Z,20.40
2019-01-05T15:36:25.869Z,37.73
2019-01-05T15:39:12.226Z,34.73
2019-01-05T15:41:58.887Z,30.83
2019-01-05T15:44:54.773Z,28.30
2019-01-05T15:47:39.694Z,27.03
2019-01-05T15:50:38.970Z,35.93
2019-01-05T15:53:31.937Z,31.83
2019-01-05T15:56:18.106Z,30.13
2019-01-05T15:59:03.178Z,27.23
2019-01-05T16:01:52.353Z,30.63
2019-01-05T16:04:42.820Z,28.47
2019-01-05T16:07:32.134Z,33.23
2019-01-05T16:10:19.942Z,37.77
2019-01-05T16:13:15.928Z,39.23
2019-01-05T16:16:00.761Z,29.73
2019-01-05T16:18:46.379Z,42.57
2019-01-05T16:21:45.265Z,28.43
2019-01-05T16:24:37.631Z,27.07
2019-01-05T16:27:37.048Z,31.10
2019-01-05T16:30:24.631Z,33.90
2019-01-05T16:33:11.981Z,37.73
2019-01-05T16:36:18.304Z,34.07
2019-01-05T16:39:05.083Z,41.23
2019-01-05T16:41:50.910Z,29.10
2019-01-05T16:44:37.433Z,81.20
2019-01-05T16:47:22.579Z,34.20
2019-01-05T16:50:06.902Z,32.77
2019-01-05T16:53:02.207Z,46.63
2019-01-05T16:55:47.665Z,34.37
2019-01-05T16:58:49.171Z,40.57
2019-01-05T17:01:34.228Z,41.13
2019-01-05T17:04:30.269Z,32.80
2019-01-05T17:07:15.825Z,29.17
2019-01-05T17:10:14.763Z,26.30
2019-01-05T17:13:07.551Z,32.00
2019-01-05T17:15:54.090Z,30.87
2019-01-05T17:18:39.601Z,32.67
2019-01-05T17:21:25.214Z,32.67
2019-01-05T17:24:21.468Z,48.80
2019-01-05T17:27:05.607Z,51.70
2019-01-05T17:29:47.227Z,44.33
2019-01-05T17:35:33.549Z,30.23
2019-01-05T17:38:23.021Z,47.70
2019-01-05T17:41:14.549Z,26.63
2019-01-05T17:44:03.850Z,42.17
2019-01-05T17:46:50.239Z,29.83
2019-01-05T17:49:48.670Z,36.33
2019-01-05T17:52:48.821Z,31.10
2019-01-05T17:55:38.839Z,24.83
2019-01-05T17:58:18.878Z,36.30
2019-01-05T18:01:08.520Z,541.90
2019-01-05T18:04:08.129Z,297.10
2019-01-05T18:07:04.302Z,301.27
2019-01-05T18:09:54.566Z,181.63
2019-01-05T18:12:59.587Z,121.37
2019-01-05T18:15:44.954Z,177.03
2019-01-05T18:18:32.125Z,30.70
2019-01-05T18:21:18.484Z,36.93
2019-01-05T18:24:04.215Z,22.53
2019-01-05T18:26:47.915Z,31.00
2019-01-05T18:29:32.949Z,36.47
2019-01-05T18:32:17.911Z,37.43
2019-01-05T18:35:19.950Z,43.87
2019-01-05T18:38:10.036Z,33.97
2019-01-05T18:40:59.764Z,41.73
2019-01-05T18:43:56.528Z,35.83
2019-01-05T18:46:42.863Z,38.00
2019-01-05T18:49:26.246Z,33.83
2019-01-05T18:52:11.082Z,26.17
2019-01-05T18:54:57.117Z,36.97
2019-01-05T18:57:42.727Z,35.37
2019-01-05T19:00:27.727Z,39.03
2019-01-05T19:03:08.459Z,24.77
2019-01-05T19:05:54.439Z,39.47
2019-01-05T19:08:40.785Z,50.00
2019-01-05T19:11:31.388Z,44.00
2019-01-05T19:14:16.538Z,75.73
2019-01-05T19:17:18.033Z,75.53
2019-01-05T19:20:03.803Z,45.13
2019-01-05T19:22:49.179Z,41.37
2019-01-05T19:25:34.870Z,38.00
2019-01-05T19:28:19.268Z,48.23
2019-01-05T19:31:11.980Z,34.33
2019-01-05T19:34:14.051Z,43.40
2019-01-05T19:36:56.708Z,59.40
2019-01-05T19:39:34.973Z,62.70
2019-01-05T19:42:30.269Z,47.80
2019-01-05T19:45:34.093Z,47.30
2019-01-05T19:48:19.550Z,44.07
2019-01-05T19:51:04.978Z,48.50
2019-01-05T19:53:54.178Z,56.90
2019-01-05T19:56:39.282Z,45.87
2019-01-05T19:59:38.206Z,56.00
2019-01-05T20:02:23.758Z,60.13
2019-01-05T20:05:04.740Z,68.90
2019-01-05T20:07:45.209Z,62.10
2019-01-05T20:10:32.001Z,61.17
2019-01-05T20:13:20.363Z,44.03
2019-01-05T20:16:05.601Z,405.67
2019-01-05T20:18:52.557Z,378.37
2019-01-05T20:21:29.219Z,248.03
2019-01-05T20:24:30.503Z,52.43
2019-01-05T20:27:20.089Z,61.97
2019-01-05T20:30:15.829Z,38.43
2019-01-05T20:33:03.511Z,47.03
2019-01-05T20:35:38.326Z,54.40
2019-01-05T20:38:18.157Z,44.83
2019-01-05T20:41:14.590Z,47.50
2019-01-05T20:43:59.847Z,50.00
2019-01-05T20:46:45.722Z,61.10
2019-01-05T20:49:50.731Z,51.33
2019-01-05T20:52:36.767Z,61.30
2019-01-05T20:55:22.437Z,63.67
2019-01-05T20:58:07.889Z,189.97
2019-01-05T21:00:57.165Z,209.37
2019-01-05T21:03:37.074Z,53.83
2019-01-05T21:06:23.931Z,39.50
2019-01-05T21:09:17.480Z,45.97
2019-01-05T21:12:07.512Z,41.47
2019-01-05T21:14:53.251Z,49.23
2019-01-05T21:17:35.490Z,35.23
2019-01-05T21:20:25.626Z,40.63
2019-01-05T21:23:21.502Z,46.80
2019-01-05T21:26:07.870Z,52.73
2019-01-05T21:28:53.444Z,49.90
2019-01-05T21:31:45.861Z,45.73
2019-01-05T21:34:25.797Z,40.80
2019-01-05T21:37:11.276Z,43.47
2019-01-05T21:39:56.304Z,69.60
2019-01-05T21:42:41.227Z,50.27
2019-01-05T21:45:26.242Z,54.03
2019-01-05T21:48:12.730Z,51.27
2019-01-05T21:50:57.929Z,41.07
2019-01-05T21:53:44.122Z,40.60
2019-01-05T21:56:45.730Z,36.80
2019-01-05T21:59:35.101Z,41.80
2019-01-05T22:02:38.413Z,43.27
2019-01-05T22:05:40.338Z,38.93
2019-01-05T22:08:25.345Z,46.50
2019-01-05T22:11:08.254Z,273.87
2019-01-05T22:14:03.593Z,303.67
2019-01-05T22:16:49.611Z,201.40
2019-01-05T22:19:45.953Z,43.80
2019-01-05T22:22:36.261Z,35.50
2019-01-05T22:25:38.262Z,42.70
2019-01-05T22:28:24.172Z,43.57
2019-01-05T22:31:25.942Z,38.57
2019-01-05T22:34:17.290Z,35.83
2019-01-05T22:37:02.843Z,38.80
2019-01-05T22:40:07.812Z,38.03
2019-01-05T22:42:56.075Z,35.03
2019-01-05T22:45:42.802Z,44.60
2019-01-05T22:48:29.572Z,34.63
2019-01-05T22:51:04.627Z,38.03
2019-01-05T22:54:03.585Z,39.80
2019-01-05T22:57:01.283Z,39.63
2019-01-05T22:59:55.226Z,333.87
2019-01-05T23:02:47.780Z,75.67
2019-01-05T23:05:34.384Z,57.03
2019-01-05T23:08:35.890Z,55.57
2019-01-05T23:11:20.781Z,56.83
2019-01-05T23:14:13.585Z,51.27
2019-01-05T23:16:57.089Z,48.63
2019-01-05T23:19:42.271Z,35.43
2019-01-05T23:22:27.462Z,51.23
2019-01-05T23:25:22.813Z,61.90
2019-01-05T23:28:12.375Z,57.07
2019-01-05T23:31:08.701Z,39.57
2019-01-05T23:34:01.596Z,29.10
2019-01-05T23:36:47.019Z,40.90
2019-01-05T23:39:44.243Z,38.87
2019-01-05T23:42:30.229Z,22.70
2019-01-05T23:45:15.683Z,32.83
2019-01-05T23:48:02.495Z,35.53
2019-01-05T23:50:54.886Z,37.50
2019-01-05T23:53:44.269Z,42.47
2019-01-05T23:56:43.544Z,24.17
2019-01-05T23:59:37.143Z,53.97
